createdAt,value
2022-08-23T00:01:02.305Z,6.20
2022-08-23T00:03:15.447Z,7.20
2022-08-23T00:05:28.550Z,7.10
2022-08-23T00:07:42.847Z,6.20
2022-08-23T00:09:55.892Z,5.50
2022-08-23T00:12:16.596Z,4.30
2022-08-23T00:14:34.044Z,6.80
2022-08-23T00:16:48.993Z,7.70
2022-08-23T00:19:02.317Z,5.60
2022-08-23T00:21:15.744Z,6.20
2022-08-23T00:23:28.962Z,5.40
2022-08-23T00:25:43.031Z,6.00
2022-08-23T00:27:56.067Z,14.00
2022-08-23T00:30:13.563Z,5.90
2022-08-23T00:32:30.307Z,5.10
2022-08-23T00:34:44.382Z,7.20
2022-08-23T00:36:57.663Z,5.20
2022-08-23T00:39:12.435Z,4.50
2022-08-23T00:41:25.792Z,4.80
2022-08-23T00:44:00.440Z,4.10
2022-08-23T00:46:40.397Z,10.30
2022-08-23T00:48:54.017Z,8.80
2022-08-23T00:51:15.679Z,9.40
2022-08-23T00:53:31.134Z,10.00
2022-08-23T00:55:46.149Z,10.70
2022-08-23T00:58:00.395Z,7.10
2022-08-23T01:00:16.250Z,6.60
2022-08-23T01:02:29.826Z,7.70
2022-08-23T01:04:47.780Z,7.90
2022-08-23T01:07:07.485Z,8.10
2022-08-23T01:09:24.241Z,6.00
2022-08-23T01:11:41.221Z,14.40
2022-08-23T01:13:58.519Z,8.50
2022-08-23T01:16:15.165Z,13.00
2022-08-23T01:18:30.442Z,16.50
2022-08-23T01:20:47.029Z,14.60
2022-08-23T01:23:03.821Z,6.70
2022-08-23T01:25:20.762Z,4.70
2022-08-23T01:27:34.092Z,8.70
2022-08-23T01:29:47.338Z,9.30
2022-08-23T01:32:01.156Z,11.70
2022-08-23T01:34:18.739Z,7.00
2022-08-23T01:36:32.400Z,11.60
2022-08-23T01:38:46.525Z,9.30
2022-08-23T01:41:00.302Z,5.90
2022-08-23T01:43:15.473Z,5.50
2022-08-23T01:45:28.569Z,5.30
2022-08-23T01:47:42.292Z,11.20
2022-08-23T01:49:55.630Z,5.50
2022-08-23T01:52:09.993Z,16.50
2022-08-23T01:54:23.514Z,5.30
2022-08-23T01:56:39.086Z,4.70
2022-08-23T01:58:55.309Z,6.10
2022-08-23T02:01:11.521Z,15.30
2022-08-23T02:03:24.707Z,14.30
2022-08-23T02:05:38.578Z,6.70
2022-08-23T02:07:51.972Z,8.00
2022-08-23T02:10:05.573Z,13.60
2022-08-23T02:12:18.824Z,5.20
2022-08-23T02:14:38.907Z,8.00
2022-08-23T02:19:19.289Z,6.90
2022-08-23T02:21:34.170Z,6.10
2022-08-23T02:23:47.171Z,9.90
2022-08-23T02:26:00.418Z,18.50
2022-08-23T02:28:13.616Z,10.90
2022-08-23T02:30:27.102Z,8.70
2022-08-23T02:32:40.237Z,12.80
2022-08-23T02:35:04.630Z,14.40
2022-08-23T02:37:20.650Z,13.80
2022-08-23T02:39:34.607Z,8.60
2022-08-23T02:41:47.970Z,12.30
2022-08-23T02:44:01.634Z,1.60
2022-08-23T02:46:15.168Z,1.70
2022-08-23T02:48:29.119Z,1.90
2022-08-23T02:50:48.493Z,1.50
2022-08-23T02:53:02.039Z,1.50
2022-08-23T02:55:15.849Z,2.00
2022-08-23T02:57:29.890Z,1.10
2022-08-23T02:59:45.809Z,2.20
2022-08-23T03:01:59.689Z,3.70
2022-08-23T03:04:17.473Z,1.80
2022-08-23T03:06:31.168Z,4.10
2022-08-23T03:08:44.367Z,2.70
2022-08-23T03:10:58.775Z,1.50
2022-08-23T03:13:11.714Z,0.90
2022-08-23T03:15:24.828Z,1.20
2022-08-23T03:17:38.391Z,1.10
2022-08-23T03:19:53.559Z,0.70
2022-08-23T03:22:06.708Z,1.30
2022-08-23T03:24:20.245Z,1.30
2022-08-23T03:26:33.566Z,2.90
2022-08-23T03:28:48.252Z,1.30
2022-08-23T03:31:01.778Z,1.90
2022-08-23T03:33:16.062Z,1.30
2022-08-23T03:35:29.930Z,1.70
2022-08-23T03:37:43.359Z,1.70
2022-08-23T03:39:56.846Z,1.60
2022-08-23T03:42:12.022Z,2.10
2022-08-23T03:44:25.598Z,2.00
2022-08-23T03:46:39.036Z,1.00
2022-08-23T03:48:52.939Z,2.20
2022-08-23T03:51:06.479Z,1.20
2022-08-23T03:53:20.322Z,1.30
2022-08-23T03:55:33.926Z,1.00
2022-08-23T03:57:57.877Z,2.00
2022-08-23T04:00:14.438Z,1.80
2022-08-23T04:02:34.307Z,1.30
2022-08-23T04:04:47.988Z,1.10
2022-08-23T04:07:14.367Z,1.30
2022-08-23T04:09:27.680Z,1.80
2022-08-23T04:11:41.327Z,0.90
2022-08-23T04:13:54.950Z,1.70
2022-08-23T04:16:10.270Z,1.20
2022-08-23T04:18:23.424Z,1.30
2022-08-23T04:20:37.137Z,1.10
2022-08-23T04:22:55.748Z,1.10
2022-08-23T04:25:32.959Z,0.90
2022-08-23T04:27:44.386Z,1.40
2022-08-23T04:29:57.749Z,1.30
2022-08-23T04:32:13.423Z,1.20
2022-08-23T04:34:28.766Z,1.70
2022-08-23T04:36:51.816Z,2.60
2022-08-23T04:39:08.874Z,4.30
2022-08-23T04:41:39.241Z,2.80
2022-08-23T04:43:53.283Z,1.70
2022-08-23T04:46:06.548Z,3.50
2022-08-23T04:48:20.592Z,4.00
2022-08-23T04:50:35.039Z,1.80
2022-08-23T04:53:14.750Z,2.50
2022-08-23T04:55:36.729Z,1.50
2022-08-23T04:57:52.249Z,1.40
2022-08-23T05:00:09.961Z,1.70
2022-08-23T05:02:24.531Z,2.70
2022-08-23T05:04:42.545Z,1.60
2022-08-23T05:06:55.828Z,1.10
2022-08-23T05:09:09.032Z,2.30
2022-08-23T05:11:23.514Z,2.20
2022-08-23T05:13:37.286Z,1.70
2022-08-23T05:15:53.906Z,1.20
2022-08-23T05:18:13.383Z,1.10
2022-08-23T05:20:27.590Z,1.10
2022-08-23T05:22:43.234Z,1.30
2022-08-23T05:25:22.361Z,1.10
2022-08-23T05:27:37.011Z,2.40
2022-08-23T05:29:51.075Z,1.20
2022-08-23T05:32:04.129Z,1.30
2022-08-23T05:34:18.054Z,1.10
2022-08-23T05:36:38.987Z,2.60
2022-08-23T05:39:02.392Z,1.70
2022-08-23T05:41:16.776Z,1.10
2022-08-23T05:43:30.801Z,2.40
2022-08-23T05:45:44.805Z,1.30
2022-08-23T05:47:58.317Z,1.20
2022-08-23T05:50:33.823Z,1.10
2022-08-23T05:52:51.040Z,1.90
2022-08-23T05:55:04.910Z,2.10
2022-08-23T05:57:40.830Z,2.10
2022-08-23T05:59:54.229Z,1.70
2022-08-23T06:02:07.306Z,1.70
2022-08-23T06:04:20.556Z,1.20
2022-08-23T06:06:37.030Z,2.90
2022-08-23T06:08:52.395Z,2.70
2022-08-23T06:11:10.508Z,1.90
2022-08-23T06:13:27.128Z,2.90
2022-08-23T06:15:40.256Z,1.00
2022-08-23T06:17:55.047Z,4.70
2022-08-23T06:20:10.030Z,2.40
2022-08-23T06:22:40.098Z,2.30
2022-08-23T06:24:53.297Z,2.20
2022-08-23T06:27:14.603Z,2.10
2022-08-23T06:29:28.463Z,1.80
2022-08-23T06:32:09.421Z,2.20
2022-08-23T06:34:34.715Z,1.10
2022-08-23T06:37:07.918Z,1.70
2022-08-23T06:39:42.147Z,1.10
2022-08-23T06:42:37.910Z,2.10
2022-08-23T06:44:49.217Z,2.10
2022-08-23T06:47:25.347Z,1.50
2022-08-23T06:49:38.395Z,1.10
2022-08-23T06:51:53.337Z,2.10
2022-08-23T06:54:17.436Z,1.40
2022-08-23T06:56:40.685Z,1.30
2022-08-23T06:58:59.458Z,2.20
2022-08-23T07:01:46.989Z,1.00
2022-08-23T07:04:07.336Z,2.40
2022-08-23T07:06:52.520Z,1.20
2022-08-23T07:09:06.183Z,1.00
2022-08-23T07:11:19.275Z,3.20
2022-08-23T07:13:32.515Z,1.50
2022-08-23T07:15:50.183Z,2.40
2022-08-23T07:18:06.512Z,1.50
2022-08-23T07:20:21.100Z,1.80
2022-08-23T07:22:34.515Z,2.40
2022-08-23T07:24:48.686Z,2.00
2022-08-23T07:27:02.966Z,1.90
2022-08-23T07:29:17.175Z,1.10
2022-08-23T07:31:33.775Z,4.20
2022-08-23T07:33:47.895Z,2.50
2022-08-23T07:36:05.279Z,1.80
2022-08-23T07:38:18.505Z,1.50
2022-08-23T07:40:35.513Z,1.90
2022-08-23T07:42:52.153Z,2.00
2022-08-23T07:45:09.946Z,3.20
2022-08-23T07:47:23.131Z,1.20
2022-08-23T07:49:37.609Z,1.60
2022-08-23T07:51:53.350Z,3.20
2022-08-23T07:54:08.723Z,5.10
2022-08-23T07:56:30.212Z,1.20
2022-08-23T07:58:51.218Z,1.70
2022-08-23T08:01:36.816Z,3.50
2022-08-23T08:03:51.131Z,2.80
2022-08-23T08:06:17.079Z,6.30
2022-08-23T08:08:30.685Z,2.50
2022-08-23T08:10:45.187Z,1.60
2022-08-23T08:12:58.559Z,1.20
2022-08-23T08:15:12.820Z,2.40
2022-08-23T08:17:27.645Z,2.20
2022-08-23T08:20:03.625Z,1.60
2022-08-23T08:22:38.170Z,2.60
2022-08-23T08:24:57.233Z,1.50
2022-08-23T08:27:12.420Z,1.90
2022-08-23T08:29:25.554Z,1.50
2022-08-23T08:31:40.446Z,0.70
2022-08-23T08:33:53.461Z,1.90
2022-08-23T08:36:07.452Z,1.40
2022-08-23T08:38:20.517Z,0.80
2022-08-23T08:40:42.276Z,1.10
2022-08-23T08:43:17.912Z,1.00
2022-08-23T08:45:36.070Z,3.40
2022-08-23T08:47:53.421Z,2.40
2022-08-23T08:50:13.206Z,2.70
2022-08-23T08:52:32.344Z,4.30
2022-08-23T08:54:53.202Z,1.50
2022-08-23T08:57:10.210Z,1.40
2022-08-23T08:59:32.143Z,2.20
2022-08-23T09:01:48.577Z,3.10
2022-08-23T09:04:07.640Z,1.10
2022-08-23T09:06:28.712Z,1.60
2022-08-23T09:08:58.531Z,2.20
2022-08-23T09:11:17.582Z,2.80
2022-08-23T09:14:00.733Z,1.20
2022-08-23T09:16:28.741Z,1.30
2022-08-23T09:18:43.584Z,2.50
2022-08-23T09:20:59.973Z,1.20
2022-08-23T09:23:21.134Z,4.20
2022-08-23T09:25:35.748Z,2.20
2022-08-23T09:28:02.921Z,3.10
2022-08-23T09:30:18.942Z,3.00
2022-08-23T09:32:38.787Z,1.30
2022-08-23T09:34:55.080Z,1.00
2022-08-23T09:37:20.105Z,2.60
2022-08-23T09:39:36.335Z,1.40
2022-08-23T09:41:51.730Z,2.00
2022-08-23T09:44:05.253Z,2.00
2022-08-23T09:46:31.657Z,2.00
2022-08-23T09:48:48.054Z,1.10
2022-08-23T09:51:20.781Z,2.00
2022-08-23T09:53:35.796Z,1.30
2022-08-23T09:55:58.385Z,3.90
2022-08-23T09:58:20.907Z,0.80
2022-08-23T10:02:45.050Z,1.30
2022-08-23T10:05:11.890Z,1.40
2022-08-23T10:07:42.319Z,1.50
2022-08-23T10:09:58.569Z,2.10
2022-08-23T10:12:12.152Z,1.40
2022-08-23T10:14:30.024Z,2.40
2022-08-23T10:16:54.492Z,0.70
2022-08-23T10:19:14.785Z,1.70
2022-08-23T10:21:34.434Z,0.80
2022-08-23T10:24:00.659Z,1.20
2022-08-23T10:26:21.562Z,2.00
2022-08-23T10:28:59.667Z,2.00
2022-08-23T10:31:21.864Z,2.20
2022-08-23T10:33:45.503Z,3.50
2022-08-23T10:36:05.477Z,2.50
2022-08-23T10:38:46.320Z,1.10
2022-08-23T10:41:07.302Z,12.40
2022-08-23T10:43:29.676Z,1.80
2022-08-23T10:45:46.049Z,1.80
2022-08-23T10:48:29.857Z,2.40
2022-08-23T10:50:55.442Z,2.60
2022-08-23T10:53:16.829Z,1.70
2022-08-23T10:55:45.504Z,2.60
2022-08-23T10:57:58.840Z,1.20
2022-08-23T11:00:18.737Z,1.80
2022-08-23T11:02:38.618Z,1.90
2022-08-23T11:05:26.742Z,0.60
2022-08-23T11:07:42.489Z,0.80
2022-08-23T11:10:17.437Z,0.80
2022-08-23T11:12:37.570Z,1.20
2022-08-23T11:15:02.625Z,0.40
2022-08-23T11:17:27.585Z,2.30
2022-08-23T11:19:57.950Z,3.40
2022-08-23T11:22:22.691Z,0.90
2022-08-23T11:24:57.024Z,0.80
2022-08-23T11:27:12.210Z,0.90
2022-08-23T11:29:37.450Z,1.00
2022-08-23T11:32:28.095Z,1.60
2022-08-23T11:34:52.695Z,2.80
2022-08-23T11:37:33.473Z,0.70
2022-08-23T11:42:24.287Z,2.50
2022-08-23T11:44:45.015Z,2.80
2022-08-23T11:47:09.868Z,1.50
2022-08-23T11:49:42.123Z,1.20
2022-08-23T11:52:06.403Z,3.00
2022-08-23T11:54:42.345Z,1.20
2022-08-23T11:57:13.340Z,1.20
2022-08-23T11:59:51.045Z,3.10
2022-08-23T12:02:24.138Z,2.70
2022-08-23T12:04:44.780Z,0.70
2022-08-23T12:07:03.295Z,1.30
2022-08-23T12:09:47.933Z,3.80
2022-08-23T12:12:36.165Z,1.50
2022-08-23T12:15:01.029Z,1.50
2022-08-23T12:17:50.152Z,4.70
2022-08-23T12:20:16.434Z,3.00
2022-08-23T12:22:32.767Z,4.20
2022-08-23T12:24:53.036Z,2.30
2022-08-23T12:27:31.670Z,2.40
2022-08-23T12:30:04.866Z,2.30
2022-08-23T12:32:25.397Z,1.00
2022-08-23T12:34:54.222Z,2.60
2022-08-23T12:37:17.176Z,2.10
2022-08-23T12:39:35.617Z,1.60
2022-08-23T12:42:00.704Z,1.30
2022-08-23T12:44:14.652Z,1.60
2022-08-23T12:46:38.957Z,2.50
2022-08-23T12:48:53.277Z,2.50
2022-08-23T12:51:10.441Z,1.20
2022-08-23T12:53:32.757Z,4.00
2022-08-23T12:55:48.216Z,1.10
2022-08-23T12:58:02.223Z,2.40
2022-08-23T13:00:24.359Z,1.80
2022-08-23T13:02:40.727Z,4.00
2022-08-23T13:04:54.933Z,1.30
2022-08-23T13:07:10.676Z,1.00
2022-08-23T13:09:27.757Z,1.70
2022-08-23T13:11:42.919Z,1.60
2022-08-23T13:13:56.562Z,2.40
2022-08-23T13:16:30.424Z,0.40
2022-08-23T13:18:49.904Z,0.60
2022-08-23T13:21:28.044Z,1.00
2022-08-23T13:23:41.149Z,1.80
2022-08-23T13:25:54.601Z,1.90
2022-08-23T13:28:10.226Z,1.40
2022-08-23T13:30:31.332Z,1.90
2022-08-23T13:32:48.114Z,2.10
2022-08-23T13:35:21.303Z,1.70
2022-08-23T13:37:36.279Z,0.30
2022-08-23T13:39:53.128Z,4.00
2022-08-23T13:42:06.169Z,2.20
2022-08-23T13:44:22.468Z,1.50
2022-08-23T13:46:39.447Z,0.50
2022-08-23T13:48:57.961Z,3.40
2022-08-23T13:51:37.084Z,1.00
2022-08-23T13:53:50.865Z,0.70
2022-08-23T13:56:03.879Z,0.60
2022-08-23T13:58:32.281Z,0.40
2022-08-23T14:00:45.750Z,0.50
2022-08-23T14:03:09.010Z,0.50
2022-08-23T14:05:24.509Z,0.30
2022-08-23T14:07:38.137Z,1.20
2022-08-23T14:09:54.800Z,0.80
2022-08-23T14:12:12.371Z,0.30
2022-08-23T14:14:26.960Z,2.80
2022-08-23T14:16:42.129Z,0.60
2022-08-23T14:19:54.076Z,1.40
2022-08-23T14:21:43.386Z,0.90
2022-08-23T14:23:56.410Z,1.00
2022-08-23T14:26:10.085Z,4.70
2022-08-23T14:28:23.179Z,0.90
2022-08-23T14:30:39.469Z,1.80
2022-08-23T14:32:52.694Z,0.30
2022-08-23T14:35:05.962Z,2.30
2022-08-23T14:38:02.934Z,0.80
2022-08-23T14:39:52.010Z,2.10
2022-08-23T14:42:05.750Z,0.60
2022-08-23T14:44:19.480Z,1.60
2022-08-23T14:46:32.588Z,1.00
2022-08-23T14:48:45.590Z,4.00
2022-08-23T14:50:59.461Z,1.90
2022-08-23T14:53:13.504Z,1.00
2022-08-23T14:55:26.728Z,1.40
2022-08-23T14:57:39.958Z,0.80
2022-08-23T14:59:53.161Z,0.30
2022-08-23T15:02:07.130Z,5.40
2022-08-23T15:04:24.405Z,15.80
2022-08-23T15:06:43.218Z,13.70
2022-08-23T15:09:03.950Z,16.10
2022-08-23T15:13:55.656Z,10.60
2022-08-23T15:16:10.852Z,7.10
2022-08-23T15:18:24.295Z,5.30
2022-08-23T15:20:39.421Z,5.70
2022-08-23T15:22:55.723Z,4.70
2022-08-23T15:25:09.963Z,4.50
2022-08-23T15:27:24.901Z,4.70
2022-08-23T15:29:38.514Z,7.00
2022-08-23T15:31:51.632Z,5.30
2022-08-23T15:34:04.982Z,20.40
2022-08-23T15:36:20.253Z,10.60
2022-08-23T15:38:34.537Z,8.50
2022-08-23T15:40:48.518Z,5.40
2022-08-23T15:43:02.291Z,2.50
2022-08-23T15:45:16.626Z,1.00
2022-08-23T15:47:33.085Z,1.50
2022-08-23T15:49:46.094Z,0.20
2022-08-23T15:51:59.214Z,0.50
2022-08-23T15:54:13.117Z,0.20
2022-08-23T15:56:31.369Z,0.30
2022-08-23T15:58:45.386Z,0.20
2022-08-23T16:00:58.991Z,0.30
2022-08-23T16:03:27.729Z,0.20
2022-08-23T16:05:42.944Z,0.50
2022-08-23T16:08:00.198Z,0.20
2022-08-23T16:10:16.719Z,1.50
2022-08-23T16:12:29.887Z,1.80
2022-08-23T16:14:43.135Z,4.10
2022-08-23T16:16:56.348Z,1.10
2022-08-23T16:19:10.375Z,1.70
2022-08-23T16:21:24.291Z,0.40
2022-08-23T16:23:37.553Z,0.40
2022-08-23T16:25:50.706Z,2.60
2022-08-23T16:28:04.330Z,1.70
2022-08-23T16:30:19.664Z,3.50
2022-08-23T16:32:32.813Z,8.00
2022-08-23T16:34:46.010Z,0.60
2022-08-23T16:37:02.645Z,1.20
2022-08-23T16:39:16.140Z,0.50
2022-08-23T16:41:29.361Z,0.40
2022-08-23T16:43:42.351Z,0.30
2022-08-23T16:45:55.777Z,1.60
2022-08-23T16:48:14.571Z,4.50
2022-08-23T16:50:28.022Z,3.10
2022-08-23T16:52:41.258Z,5.00
2022-08-23T16:54:54.257Z,2.60
2022-08-23T16:57:07.426Z,2.00
2022-08-23T16:59:20.471Z,2.70
2022-08-23T17:01:34.483Z,0.80
2022-08-23T17:03:47.668Z,0.90
2022-08-23T17:06:01.514Z,5.40
2022-08-23T17:08:14.562Z,0.30
2022-08-23T17:10:28.644Z,0.30
2022-08-23T17:12:46.906Z,0.30
2022-08-23T17:15:00.771Z,0.90
2022-08-23T17:17:14.072Z,0.30
2022-08-23T17:19:27.177Z,0.50
2022-08-23T17:21:44.617Z,1.30
2022-08-23T17:23:58.076Z,1.20
2022-08-23T17:26:11.256Z,0.70
2022-08-23T17:28:24.695Z,0.20
2022-08-23T17:30:38.133Z,1.20
2022-08-23T17:32:52.430Z,1.90
2022-08-23T17:35:05.653Z,1.50
2022-08-23T17:37:24.309Z,3.80
2022-08-23T17:39:39.260Z,5.60
2022-08-23T17:41:54.650Z,2.50
2022-08-23T17:44:08.445Z,0.80
2022-08-23T17:46:21.697Z,2.10
2022-08-23T17:48:34.695Z,0.40
2022-08-23T17:50:48.638Z,1.60
2022-08-23T17:53:01.922Z,1.20
2022-08-23T17:55:18.982Z,0.50
2022-08-23T17:57:33.718Z,4.90
2022-08-23T17:59:46.840Z,6.00
2022-08-23T18:02:00.081Z,0.70
2022-08-23T18:04:13.177Z,0.90
2022-08-23T18:06:26.610Z,0.80
2022-08-23T18:08:39.954Z,1.40
2022-08-23T18:10:52.994Z,0.60
2022-08-23T18:13:06.486Z,0.70
2022-08-23T18:15:19.843Z,1.60
2022-08-23T18:17:33.168Z,0.60
2022-08-23T18:19:46.283Z,1.90
2022-08-23T18:22:02.280Z,4.50
2022-08-23T18:24:16.388Z,1.50
2022-08-23T18:27:02.447Z,1.60
2022-08-23T18:29:15.896Z,4.30
2022-08-23T18:31:45.459Z,3.00
2022-08-23T18:34:00.491Z,6.90
2022-08-23T18:36:14.177Z,1.30
2022-08-23T18:38:27.238Z,1.80
2022-08-23T18:40:46.455Z,1.00
2022-08-23T18:42:59.479Z,2.20
2022-08-23T18:45:16.061Z,1.60
2022-08-23T18:47:29.294Z,1.40
2022-08-23T18:49:42.714Z,3.60
2022-08-23T18:51:55.660Z,7.70
2022-08-23T18:54:09.269Z,3.40
2022-08-23T18:56:22.583Z,4.20
2022-08-23T18:58:35.695Z,2.10
2022-08-23T19:00:49.328Z,0.80
2022-08-23T19:03:04.848Z,1.00
2022-08-23T19:05:17.879Z,2.40
2022-08-23T19:07:30.789Z,2.60
2022-08-23T19:09:44.270Z,4.60
2022-08-23T19:11:57.311Z,4.80
2022-08-23T19:14:11.814Z,1.60
2022-08-23T19:16:27.825Z,2.30
2022-08-23T19:18:40.850Z,0.80
2022-08-23T19:20:53.765Z,1.70
2022-08-23T19:23:08.687Z,1.80
2022-08-23T19:25:21.970Z,6.50
2022-08-23T19:27:35.594Z,6.20
2022-08-23T19:29:48.678Z,14.60
2022-08-23T19:32:02.356Z,17.40
2022-08-23T19:34:15.500Z,10.50
2022-08-23T19:36:45.334Z,9.30
2022-08-23T19:38:59.920Z,8.00
2022-08-23T19:41:12.957Z,9.50
2022-08-23T19:43:26.674Z,10.00
2022-08-23T19:45:41.053Z,11.70
2022-08-23T19:47:54.295Z,17.80
2022-08-23T19:50:07.816Z,11.70
2022-08-23T19:52:20.840Z,8.70
2022-08-23T19:54:34.170Z,10.90
2022-08-23T19:56:49.751Z,6.20
2022-08-23T19:59:02.901Z,12.60
2022-08-23T20:01:15.924Z,9.40
2022-08-23T20:03:29.447Z,10.00
2022-08-23T20:05:43.255Z,11.70
2022-08-23T20:07:56.232Z,15.30
2022-08-23T20:10:10.609Z,13.70
2022-08-23T20:12:23.587Z,7.80
2022-08-23T20:14:37.567Z,7.40
2022-08-23T20:16:51.339Z,6.40
2022-08-23T20:19:04.502Z,8.30
2022-08-23T20:21:17.757Z,5.10
2022-08-23T20:23:47.511Z,2.60
2022-08-23T20:26:00.571Z,4.80
2022-08-23T20:28:13.551Z,8.50
2022-08-23T20:30:26.822Z,11.00
2022-08-23T20:32:39.809Z,8.30
2022-08-23T20:34:52.783Z,11.10
2022-08-23T20:37:07.058Z,6.10
2022-08-23T20:39:23.812Z,8.10
2022-08-23T20:41:39.270Z,2.60
2022-08-23T20:43:52.898Z,11.30
2022-08-23T20:46:06.746Z,2.70
2022-08-23T20:48:19.996Z,3.80
2022-08-23T20:50:32.981Z,13.20
2022-08-23T20:52:46.874Z,13.80
2022-08-23T20:55:00.045Z,6.00
2022-08-23T20:57:13.170Z,8.30
2022-08-23T20:59:27.084Z,11.90
2022-08-23T21:01:40.386Z,10.40
2022-08-23T21:03:53.307Z,8.40
2022-08-23T21:06:22.066Z,9.90
2022-08-23T21:08:35.189Z,12.00
2022-08-23T21:10:55.429Z,7.00
2022-08-23T21:13:10.646Z,4.20
2022-08-23T21:15:23.911Z,3.20
2022-08-23T21:17:37.353Z,2.20
2022-08-23T21:19:50.335Z,4.80
2022-08-23T21:22:03.315Z,7.90
2022-08-23T21:24:17.492Z,6.40
2022-08-23T21:26:30.559Z,3.40
2022-08-23T21:28:43.504Z,9.80
2022-08-23T21:30:56.748Z,14.50
2022-08-23T21:33:10.582Z,11.10
2022-08-23T21:35:23.748Z,11.20
2022-08-23T21:37:36.808Z,5.50
2022-08-23T21:39:50.101Z,2.70
2022-08-23T21:42:03.233Z,8.10
2022-08-23T21:44:28.284Z,6.90
2022-08-23T21:46:41.494Z,8.40
2022-08-23T21:48:54.588Z,11.40
2022-08-23T21:51:07.777Z,7.80
2022-08-23T21:53:21.376Z,5.90
2022-08-23T21:55:36.143Z,13.10
2022-08-23T21:57:50.117Z,19.50
2022-08-23T22:00:05.243Z,10.60
2022-08-23T22:02:25.406Z,8.80
2022-08-23T22:04:39.052Z,7.30
2022-08-23T22:06:55.938Z,10.10
2022-08-23T22:09:16.022Z,14.80
2022-08-23T22:11:29.831Z,8.00
2022-08-23T22:13:43.869Z,9.20
2022-08-23T22:15:57.039Z,12.40
2022-08-23T22:18:10.803Z,15.90
2022-08-23T22:20:23.953Z,14.00
2022-08-23T22:22:37.444Z,15.00
2022-08-23T22:24:50.444Z,20.40
2022-08-23T22:27:03.674Z,10.10
2022-08-23T22:29:17.601Z,12.40
2022-08-23T22:31:30.764Z,14.00
2022-08-23T22:33:44.283Z,11.40
2022-08-23T22:35:57.626Z,20.30
2022-08-23T22:38:14.232Z,7.70
2022-08-23T22:40:29.043Z,12.80
2022-08-23T22:42:42.333Z,17.90
2022-08-23T22:44:58.154Z,17.70
2022-08-23T22:47:11.549Z,13.30
2022-08-23T22:49:26.330Z,17.40
2022-08-23T22:51:40.415Z,11.40
2022-08-23T22:53:57.139Z,10.90
2022-08-23T22:56:11.611Z,6.70
2022-08-23T22:58:24.681Z,8.40
2022-08-23T23:00:38.013Z,14.30
2022-08-23T23:02:50.987Z,5.50
2022-08-23T23:05:04.638Z,25.20
2022-08-23T23:07:37.922Z,7.80
2022-08-23T23:09:50.938Z,13.10
2022-08-23T23:12:03.974Z,4.70
2022-08-23T23:14:17.937Z,15.60
2022-08-23T23:16:32.136Z,18.40
2022-08-23T23:19:05.983Z,7.10
2022-08-23T23:21:19.078Z,6.80
2022-08-23T23:23:33.137Z,13.00
2022-08-23T23:25:46.829Z,13.80
2022-08-23T23:27:59.786Z,5.60
2022-08-23T23:30:16.926Z,4.50
2022-08-23T23:32:29.959Z,10.10
2022-08-23T23:34:43.647Z,8.70
2022-08-23T23:37:00.287Z,15.90
2022-08-23T23:39:15.077Z,7.60
2022-08-23T23:41:28.038Z,7.90
2022-08-23T23:43:41.467Z,11.80
2022-08-23T23:45:54.730Z,16.00
2022-08-23T23:48:08.267Z,8.20
2022-08-23T23:50:22.537Z,13.40
2022-08-23T23:52:35.506Z,12.10
2022-08-23T23:54:48.614Z,6.10
2022-08-23T23:57:01.676Z,11.20
2022-08-23T23:59:14.929Z,16.90
